Cleburne, Illinois
Current Conditions -  °F | °C
As of 3:52 PM on Thursday 23 Oct 2014 (Local Time) from KMDH Reporting Station
Broken Clouds Broken Clouds  
Wind Chill: 61°   Ceiling: 15000
Heat Index: 61°   Visibility: 10mi
Dew Point: 43°   Wind: 5mph
Humidity: 52%   Direction: 230°SW
Pressure: 30.14"   Gusts: NA
Location:  37.9667°N, 89.1298°W
Report Text: KMDH 232052Z 23004KT 10SM BKN150 16/06 A3014 RMK AO2 SLP208 T01610061 56019
Loading
Personal Weather Stations






























Interactive Weather Map
Tropical Storm Tracking
New forecast layout! Learn more

10-Day Weather Forecast

Advertisements
Track Severe Weather on mobile